Time;durP1;ratioP1;P1;durP2;ratioP2;P2;SDS_P1;SDS_P2;PMS_P1;PMS_P2;Temp;Humidity;BMP_temperature;BMP_pressure;BME280_temperature;BME280_humidity;BME280_pressure;Samples;Min_cycle;Max_cycle;Signal;HPM_P1;HPM_P2
2024/01/23 00:02:02;;;;;;;11.18;2.33;;;3.70;99.90;;;;;;4925860;29;20504;-79
2024/01/23 00:04:28;;;;;;;10.68;2.53;;;3.70;99.90;;;;;;4890896;29;20054;-78
2024/01/23 00:06:54;;;;;;;13.82;2.53;;;3.70;99.90;;;;;;4929202;29;20031;-79
2024/01/23 00:09:19;;;;;;;10.52;2.30;;;3.60;99.90;;;;;;4908077;29;20037;-79
2024/01/23 00:11:45;;;;;;;7.88;2.30;;;3.60;99.90;;;;;;4920328;29;20037;-78
2024/01/23 00:14:11;;;;;;;7.45;2.15;;;3.70;99.90;;;;;;4928589;29;20507;-78
2024/01/23 00:16:37;;;;;;;13.98;2.50;;;3.70;99.90;;;;;;4928804;29;20036;-79
2024/01/23 00:19:03;;;;;;;13.70;2.60;;;3.70;99.90;;;;;;4926974;29;20028;-78
2024/01/23 00:21:29;;;;;;;9.93;3.40;;;3.80;99.90;;;;;;4929903;29;20044;-78
2024/01/23 00:23:55;;;;;;;8.27;2.67;;;3.70;99.90;;;;;;4927628;29;20032;-79
2024/01/23 00:26:20;;;;;;;11.77;2.80;;;3.80;99.90;;;;;;4912577;29;20300;-78
2024/01/23 00:28:47;;;;;;;23.40;3.03;;;3.80;99.90;;;;;;4926384;29;20076;-79
2024/01/23 00:31:13;;;;;;;10.60;2.60;;;3.70;99.90;;;;;;4893367;29;20040;-79
2024/01/23 00:33:38;;;;;;;8.40;2.83;;;3.80;99.90;;;;;;4926069;29;20055;-78
2024/01/23 00:36:05;;;;;;;10.48;2.60;;;3.80;99.90;;;;;;4911418;29;20051;-79
2024/01/23 00:38:31;;;;;;;7.90;2.15;;;3.80;99.90;;;;;;4913596;29;20040;-78
2024/01/23 00:40:57;;;;;;;10.15;2.22;;;3.80;99.90;;;;;;4913767;29;20028;-79
2024/01/23 00:43:23;;;;;;;46.70;3.83;;;3.90;99.90;;;;;;4904375;29;20398;-78
2024/01/23 00:45:49;;;;;;;27.80;3.05;;;3.80;99.90;;;;;;4926911;29;20037;-78
2024/01/23 00:48:15;;;;;;;163.98;8.77;;;3.80;99.90;;;;;;4907374;29;20043;-79
2024/01/23 00:50:41;;;;;;;44.28;3.58;;;3.70;99.90;;;;;;4921522;29;20118;-78
2024/01/23 00:53:06;;;;;;;14.90;2.35;;;3.60;99.90;;;;;;4911548;29;20028;-79
2024/01/23 00:55:32;;;;;;;19.92;2.25;;;3.50;99.90;;;;;;4904442;29;20115;-79
2024/01/23 00:57:58;;;;;;;8.05;1.63;;;3.50;99.90;;;;;;4929462;29;20307;-78
2024/01/23 01:00:24;;;;;;;6.15;1.77;;;3.40;99.90;;;;;;4921864;29;20032;-79
2024/01/23 01:02:49;;;;;;;61.10;5.13;;;3.30;99.90;;;;;;4928865;29;20071;-78
2024/01/23 01:05:15;;;;;;;81.63;4.72;;;3.30;99.90;;;;;;4907488;29;20423;-79
2024/01/23 01:07:41;;;;;;;20.95;2.35;;;3.30;99.90;;;;;;4924890;29;20040;-79
2024/01/23 01:10:07;;;;;;;9.02;1.98;;;3.20;99.90;;;;;;4883081;29;20091;-78
2024/01/23 01:12:35;;;;;;;15.45;2.08;;;3.20;99.90;;;;;;4916044;29;20200;-78
2024/01/23 01:15:02;;;;;;;8.98;2.30;;;3.20;99.90;;;;;;4912865;29;20036;-78
2024/01/23 01:17:29;;;;;;;8.00;1.58;;;3.20;99.90;;;;;;4916554;29;20040;-79
2024/01/23 01:19:55;;;;;;;5.95;1.70;;;3.30;99.90;;;;;;4912160;29;20048;-78
2024/01/23 01:22:21;;;;;;;13.00;1.52;;;3.20;99.90;;;;;;4929306;29;20346;-80
2024/01/23 01:24:47;;;;;;;12.35;1.75;;;3.20;99.90;;;;;;4929855;29;20178;-80
2024/01/23 01:27:13;;;;;;;8.75;1.45;;;3.20;99.90;;;;;;4939733;29;20027;-80
2024/01/23 01:29:38;;;;;;;8.73;1.42;;;3.10;99.90;;;;;;4934550;29;20047;-81
2024/01/23 01:32:04;;;;;;;9.30;1.60;;;3.00;99.90;;;;;;4925885;29;20032;-80
2024/01/23 01:34:31;;;;;;;5.97;2.47;;;2.90;99.90;;;;;;4932655;29;20087;-80
2024/01/23 01:36:57;;;;;;;7.22;1.17;;;2.90;99.90;;;;;;4932202;29;20047;-81
2024/01/23 01:39:23;;;;;;;8.80;1.55;;;2.90;99.90;;;;;;4910092;29;20071;-80
2024/01/23 01:41:56;;;;;;;10.45;1.60;;;2.90;99.90;;;;;;4938944;29;20044;-80
2024/01/23 01:44:21;;;;;;;10.02;1.55;;;2.90;99.90;;;;;;4933481;29;20051;-80
2024/01/23 01:46:51;;;;;;;13.13;1.63;;;3.00;99.90;;;;;;4932601;29;20399;-80
2024/01/23 01:49:18;;;;;;;19.15;2.05;;;3.10;99.90;;;;;;4911927;29;20036;-80
2024/01/23 01:51:46;;;;;;;7.97;1.55;;;3.20;99.90;;;;;;4934739;29;20446;-79
2024/01/23 01:54:12;;;;;;;15.88;1.70;;;3.20;99.90;;;;;;4929146;29;20048;-80
2024/01/23 01:56:40;;;;;;;6.97;2.13;;;3.30;99.90;;;;;;4936720;29;20042;-80
2024/01/23 01:59:07;;;;;;;7.82;1.48;;;3.40;99.90;;;;;;4897060;29;20095;-80
2024/01/23 02:01:33;;;;;;;6.35;1.33;;;3.40;99.90;;;;;;4934113;29;20044;-81
2024/01/23 02:03:59;;;;;;;5.07;1.60;;;3.40;99.90;;;;;;4918564;29;20044;-81
2024/01/23 02:06:26;;;;;;;11.45;2.22;;;3.40;99.90;;;;;;4920452;29;20063;-80
2024/01/23 02:08:53;;;;;;;12.15;2.15;;;3.40;99.90;;;;;;4932071;29;20511;-80
2024/01/23 02:11:18;;;;;;;6.07;1.48;;;3.50;99.90;;;;;;4932404;29;20115;-80
2024/01/23 02:13:44;;;;;;;12.98;2.55;;;3.50;99.90;;;;;;4927078;29;20040;-80
2024/01/23 02:16:11;;;;;;;10.25;1.90;;;3.50;99.90;;;;;;4909088;29;20281;-80
2024/01/23 02:18:36;;;;;;;9.45;2.03;;;3.50;99.90;;;;;;4916001;29;20024;-80
2024/01/23 02:21:02;;;;;;;7.82;1.67;;;3.60;99.90;;;;;;4931205;29;20522;-80
2024/01/23 02:23:29;;;;;;;11.70;2.13;;;3.50;99.90;;;;;;4892361;29;20103;-80
2024/01/23 02:25:55;;;;;;;7.20;1.90;;;3.60;99.90;;;;;;4918447;29;20055;-80
2024/01/23 02:28:21;;;;;;;13.05;1.83;;;3.50;99.90;;;;;;4914648;29;20032;-80
2024/01/23 02:30:47;;;;;;;6.50;1.90;;;3.50;99.90;;;;;;4937259;29;20035;-80
2024/01/23 02:33:16;;;;;;;7.90;1.70;;;3.60;99.90;;;;;;4914927;29;20028;-80
2024/01/23 02:35:41;;;;;;;4.75;1.67;;;3.60;99.90;;;;;;4933108;29;20038;-80
2024/01/23 02:38:08;;;;;;;5.38;1.73;;;3.60;99.90;;;;;;4899649;29;20119;-80
2024/01/23 02:40:35;;;;;;;8.98;1.67;;;3.60;99.90;;;;;;4930426;29;20046;-80
2024/01/23 02:43:00;;;;;;;6.57;1.50;;;3.60;99.90;;;;;;4931789;29;20039;-80
2024/01/23 02:45:26;;;;;;;7.90;1.63;;;3.60;99.90;;;;;;4922715;29;20087;-80
2024/01/23 02:47:52;;;;;;;9.05;1.80;;;3.60;99.90;;;;;;4900201;29;20037;-80
2024/01/23 02:50:18;;;;;;;11.38;2.17;;;3.60;99.90;;;;;;4915112;29;20048;-80
2024/01/23 02:52:44;;;;;;;8.60;1.80;;;3.60;99.90;;;;;;4930860;29;20107;-80
2024/01/23 02:55:10;;;;;;;13.52;2.05;;;3.60;99.90;;;;;;4934477;29;20043;-80
2024/01/23 02:57:36;;;;;;;9.23;1.88;;;3.60;99.90;;;;;;4902982;29;20043;-80
2024/01/23 03:00:01;;;;;;;7.82;2.17;;;3.60;99.90;;;;;;4937480;29;20060;-80
2024/01/23 03:02:28;;;;;;;3.63;1.35;;;3.60;99.90;;;;;;4935364;29;20032;-80
2024/01/23 03:04:54;;;;;;;8.63;1.92;;;3.60;99.90;;;;;;4935200;29;20040;-80
2024/01/23 03:07:20;;;;;;;7.93;1.67;;;3.60;99.90;;;;;;4938023;29;20091;-80
2024/01/23 03:09:46;;;;;;;14.48;1.95;;;3.60;99.90;;;;;;4934758;29;20045;-80
2024/01/23 03:12:16;;;;;;;7.63;1.65;;;3.60;99.90;;;;;;4899715;29;20044;-80
2024/01/23 03:14:43;;;;;;;11.00;2.50;;;3.60;99.90;;;;;;4928286;29;20469;-80
2024/01/23 03:17:13;;;;;;;5.43;1.85;;;3.60;99.90;;;;;;4930433;29;20074;-80
2024/01/23 03:19:40;;;;;;;5.32;1.77;;;3.70;99.90;;;;;;4927513;29;20040;-79
2024/01/23 03:22:06;;;;;;;4.93;1.52;;;3.70;99.90;;;;;;4932534;29;20031;-80
2024/01/23 03:24:32;;;;;;;10.10;2.63;;;3.70;99.90;;;;;;4904153;29;20071;-80
2024/01/23 03:26:58;;;;;;;11.75;2.03;;;3.70;99.90;;;;;;4940588;29;20032;-80
2024/01/23 03:29:25;;;;;;;11.48;1.90;;;3.70;99.90;;;;;;4935446;29;20042;-80
2024/01/23 03:31:52;;;;;;;11.15;2.00;;;3.70;99.90;;;;;;4920528;29;20032;-80
2024/01/23 03:34:23;;;;;;;8.70;2.17;;;3.70;99.90;;;;;;4932668;29;20057;-80
2024/01/23 03:36:49;;;;;;;12.15;2.25;;;3.70;99.90;;;;;;4919521;29;20048;-80
2024/01/23 03:39:16;;;;;;;19.42;2.72;;;3.60;99.90;;;;;;4936527;29;20119;-79
2024/01/23 03:41:42;;;;;;;10.73;1.95;;;3.70;99.90;;;;;;4933991;29;20044;-80
2024/01/23 03:44:08;;;;;;;13.55;2.00;;;3.70;99.90;;;;;;4935706;29;20042;-80
2024/01/23 03:46:34;;;;;;;7.53;1.83;;;3.70;99.90;;;;;;4927906;29;20048;-80
2024/01/23 03:48:59;;;;;;;11.98;2.10;;;3.70;99.90;;;;;;4930115;29;20052;-80
2024/01/23 03:51:25;;;;;;;16.40;2.15;;;3.70;99.90;;;;;;4911400;29;20100;-80
2024/01/23 03:53:51;;;;;;;8.95;2.05;;;3.70;99.90;;;;;;4934604;29;20326;-79
2024/01/23 03:56:17;;;;;;;8.60;1.48;;;3.70;99.90;;;;;;4933174;29;20033;-80
2024/01/23 03:58:43;;;;;;;16.30;2.03;;;3.70;99.90;;;;;;4936464;29;20099;-78
2024/01/23 04:01:09;;;;;;;14.82;2.30;;;3.60;99.90;;;;;;4940581;29;20027;-79
2024/01/23 04:03:34;;;;;;;5.47;1.40;;;3.60;99.90;;;;;;4932711;29;20040;-79
2024/01/23 04:06:00;;;;;;;7.10;1.58;;;3.60;99.90;;;;;;4887275;29;20024;-80
2024/01/23 04:08:26;;;;;;;7.70;2.15;;;3.60;99.90;;;;;;4929997;29;20032;-78
2024/01/23 04:10:52;;;;;;;11.82;1.50;;;3.60;99.90;;;;;;4877991;29;20032;-79
2024/01/23 04:13:18;;;;;;;7.30;1.40;;;3.50;99.90;;;;;;4927755;29;20059;-79
2024/01/23 04:15:44;;;;;;;5.53;1.52;;;3.50;99.90;;;;;;4930088;29;20485;-80
2024/01/23 04:18:10;;;;;;;8.23;1.70;;;3.50;99.90;;;;;;4928375;29;20040;-80
2024/01/23 04:20:38;;;;;;;12.23;1.70;;;3.40;99.90;;;;;;4920011;29;20043;-79
2024/01/23 04:23:03;;;;;;;10.80;1.73;;;3.40;99.90;;;;;;4934085;29;20035;-79
2024/01/23 04:25:29;;;;;;;8.70;1.52;;;3.40;99.90;;;;;;4926020;29;20036;-79
2024/01/23 04:27:57;;;;;;;5.70;1.27;;;3.40;99.90;;;;;;4941768;29;20028;-80
2024/01/23 04:30:23;;;;;;;12.32;1.60;;;3.40;99.90;;;;;;4916345;29;20269;-80
2024/01/23 04:32:49;;;;;;;11.27;1.40;;;3.40;99.90;;;;;;4915166;29;20048;-79
2024/01/23 04:35:15;;;;;;;6.32;1.30;;;3.40;99.90;;;;;;4917834;29;20059;-79
2024/01/23 04:37:40;;;;;;;5.60;1.40;;;3.40;99.90;;;;;;4928853;29;20032;-80
2024/01/23 04:40:08;;;;;;;10.30;1.80;;;3.40;99.90;;;;;;4893614;29;20111;-81
2024/01/23 04:42:37;;;;;;;11.70;1.73;;;3.40;99.90;;;;;;4934445;29;20092;-80
2024/01/23 04:45:04;;;;;;;8.55;1.70;;;3.40;99.90;;;;;;4938779;29;20062;-80
2024/01/23 04:47:29;;;;;;;16.33;1.70;;;3.30;99.90;;;;;;4932044;29;20055;-80
2024/01/23 04:49:55;;;;;;;8.13;1.77;;;3.40;99.90;;;;;;4922197;29;20012;-80
2024/01/23 04:52:21;;;;;;;10.88;1.50;;;3.30;99.90;;;;;;4930633;29;20370;-80
2024/01/23 04:54:47;;;;;;;8.88;1.30;;;3.30;99.90;;;;;;4934864;29;20043;-80
2024/01/23 04:57:14;;;;;;;10.05;1.77;;;3.30;99.90;;;;;;4931023;29;20032;-80
2024/01/23 04:59:40;;;;;;;9.27;1.45;;;3.20;99.90;;;;;;4921611;29;20060;-80
2024/01/23 05:02:06;;;;;;;11.77;1.40;;;3.20;99.90;;;;;;4940142;29;20023;-80
2024/01/23 05:04:32;;;;;;;7.20;1.80;;;3.10;99.90;;;;;;4915458;29;20028;-80
2024/01/23 05:06:57;;;;;;;9.65;1.48;;;3.10;99.90;;;;;;4914866;29;20020;-80
2024/01/23 05:09:24;;;;;;;9.98;1.65;;;3.10;99.90;;;;;;4932416;29;20030;-79
2024/01/23 05:11:50;;;;;;;9.43;1.35;;;3.00;99.90;;;;;;4904753;29;20098;-80
2024/01/23 05:14:17;;;;;;;11.85;1.98;;;3.00;99.90;;;;;;4932818;29;20036;-80
2024/01/23 05:16:43;;;;;;;4.95;1.25;;;3.00;99.90;;;;;;4903635;29;20040;-80
2024/01/23 05:19:09;;;;;;;11.27;1.52;;;3.10;99.90;;;;;;4933595;29;20040;-80
2024/01/23 05:21:34;;;;;;;12.85;1.60;;;3.10;99.90;;;;;;4916681;29;20044;-80
2024/01/23 05:24:02;;;;;;;7.40;1.30;;;3.10;99.90;;;;;;4935907;29;20034;-80
2024/01/23 05:26:28;;;;;;;3.88;0.93;;;3.20;99.90;;;;;;4928898;29;20489;-79
2024/01/23 05:28:54;;;;;;;3.42;0.70;;;3.20;99.90;;;;;;4925217;29;20043;-79
2024/01/23 05:31:20;;;;;;;2.88;0.28;;;3.20;99.90;;;;;;4922032;29;20032;-79
2024/01/23 05:33:46;;;;;;;2.03;0.40;;;3.20;99.90;;;;;;4906590;29;20040;-79
2024/01/23 05:36:11;;;;;;;2.80;0.35;;;3.10;99.90;;;;;;4930789;29;20362;-79
2024/01/23 05:38:37;;;;;;;2.72;0.30;;;3.00;99.90;;;;;;4912783;29;20068;-80
2024/01/23 05:41:03;;;;;;;1.42;0.20;;;2.90;99.90;;;;;;4919196;29;20048;-79
2024/01/23 05:43:29;;;;;;;2.55;0.20;;;2.80;99.90;;;;;;4928635;29;20036;-80
2024/01/23 05:45:55;;;;;;;4.60;0.30;;;2.70;99.90;;;;;;4932321;29;20055;-80
2024/01/23 05:48:21;;;;;;;0.93;0.38;;;2.70;99.90;;;;;;4904743;29;20047;-79
2024/01/23 05:50:47;;;;;;;0.52;0.20;;;2.70;99.90;;;;;;4928039;29;20144;-79
2024/01/23 05:53:13;;;;;;;0.10;0.10;;;2.60;99.90;;;;;;4921501;29;20028;-79
2024/01/23 05:55:39;;;;;;;1.95;0.20;;;2.50;99.90;;;;;;4926582;29;20123;-79
2024/01/23 05:58:05;;;;;;;1.35;0.30;;;2.50;99.90;;;;;;4918941;29;20035;-80
2024/01/23 06:00:31;;;;;;;0.00;0.00;;;2.40;99.90;;;;;;4927843;29;20043;-80
2024/01/23 06:02:58;;;;;;;4.53;0.50;;;2.30;99.90;;;;;;4914613;29;20060;-80
2024/01/23 06:05:24;;;;;;;21.50;0.77;;;2.20;99.90;;;;;;4924492;29;20064;-80
2024/01/23 06:07:50;;;;;;;66.57;2.40;;;2.20;99.90;;;;;;4915728;29;20036;-79
2024/01/23 06:10:16;;;;;;;3.42;0.50;;;2.10;99.90;;;;;;4897347;29;20056;-80
2024/01/23 06:12:42;;;;;;;1.30;0.03;;;2.10;99.90;;;;;;4928819;29;20135;-80
2024/01/23 06:15:08;;;;;;;101.82;4.43;;;2.00;99.90;;;;;;4905610;29;20047;-80
2024/01/23 06:17:34;;;;;;;11.60;0.45;;;2.00;99.90;;;;;;4938479;29;20149;-79
2024/01/23 06:20:03;;;;;;;18.38;1.00;;;1.90;99.90;;;;;;4916826;29;20063;-79
2024/01/23 06:22:32;;;;;;;0.95;0.25;;;1.90;99.90;;;;;;4914367;29;20051;-79
2024/01/23 06:25:06;;;;;;;1.30;0.32;;;1.90;99.90;;;;;;4929406;29;20036;-80
2024/01/23 06:27:33;;;;;;;14.53;0.93;;;1.90;99.90;;;;;;4936457;29;20056;-79
2024/01/23 06:29:59;;;;;;;25.35;1.92;;;1.90;99.90;;;;;;4932721;29;20024;-80
2024/01/23 06:32:25;;;;;;;14.60;1.45;;;1.90;99.90;;;;;;4917371;29;20047;-80
2024/01/23 06:34:51;;;;;;;68.68;3.30;;;1.80;99.90;;;;;;4913014;29;20605;-80
2024/01/23 06:37:18;;;;;;;43.78;3.03;;;1.80;99.90;;;;;;4933892;29;20047;-80
2024/01/23 06:39:44;;;;;;;7.05;0.75;;;1.70;99.90;;;;;;4912589;29;20045;-79
2024/01/23 06:42:10;;;;;;;3.80;0.65;;;1.70;99.90;;;;;;4919895;29;20051;-79
2024/01/23 06:44:36;;;;;;;4.05;0.55;;;1.60;99.90;;;;;;4933286;29;20040;-79
2024/01/23 06:47:02;;;;;;;7.97;0.85;;;1.60;99.90;;;;;;4915844;29;20052;-79
2024/01/23 06:49:27;;;;;;;4.82;0.90;;;1.50;99.90;;;;;;4935929;29;20047;-80
2024/01/23 06:51:53;;;;;;;22.58;1.77;;;1.50;99.90;;;;;;4917861;29;20451;-79
2024/01/23 06:54:19;;;;;;;6.90;0.90;;;1.50;99.90;;;;;;4924966;29;20039;-80
2024/01/23 06:56:46;;;;;;;24.38;1.75;;;1.50;99.90;;;;;;4928900;29;20450;-79
2024/01/23 06:59:12;;;;;;;27.33;1.92;;;1.50;99.90;;;;;;4930369;29;20032;-79
2024/01/23 07:01:41;;;;;;;107.30;5.22;;;1.50;99.90;;;;;;4900575;29;20076;-79
2024/01/23 07:04:07;;;;;;;87.38;4.63;;;1.50;99.90;;;;;;4917079;29;20043;-80
2024/01/23 07:06:51;;;;;;;130.35;6.95;;;1.50;99.90;;;;;;4917332;29;20066;-80
2024/01/23 07:09:17;;;;;;;139.75;9.05;;;1.50;99.90;;;;;;4913350;29;20537;-80
2024/01/23 07:11:43;;;;;;;223.27;11.10;;;1.50;99.90;;;;;;4916643;29;20040;-80
2024/01/23 07:14:08;;;;;;;9.18;1.50;;;1.50;99.90;;;;;;4901847;29;20036;-79
2024/01/23 07:16:35;;;;;;;55.90;4.32;;;1.50;99.90;;;;;;4920761;29;20032;-80
2024/01/23 07:19:01;;;;;;;6.25;1.23;;;1.60;99.90;;;;;;4934055;29;20043;-80
2024/01/23 07:21:27;;;;;;;12.27;1.85;;;1.60;99.90;;;;;;4935557;29;20024;-79
2024/01/23 07:23:52;;;;;;;8.75;1.05;;;1.70;99.90;;;;;;4920810;29;20037;-79
2024/01/23 07:26:18;;;;;;;7.15;1.55;;;1.70;99.90;;;;;;4902111;29;20122;-79
2024/01/23 07:28:44;;;;;;;8.27;1.35;;;1.70;99.90;;;;;;4900199;29;20375;-79
2024/01/23 07:31:11;;;;;;;166.45;7.80;;;1.70;99.90;;;;;;4921979;29;20032;-79
2024/01/23 07:33:38;;;;;;;124.32;6.13;;;1.80;99.90;;;;;;4914288;29;20039;-79
2024/01/23 07:36:04;;;;;;;64.45;4.78;;;1.80;99.90;;;;;;4924080;29;20076;-78
2024/01/23 07:38:30;;;;;;;24.65;3.40;;;1.80;99.90;;;;;;4913754;29;20095;-79
2024/01/23 07:40:56;;;;;;;42.90;2.70;;;1.80;99.90;;;;;;4919304;29;20059;-78
2024/01/23 07:43:25;;;;;;;67.50;3.53;;;1.80;99.90;;;;;;4929335;29;20485;-79
2024/01/23 07:45:52;;;;;;;10.43;1.42;;;1.80;99.90;;;;;;4926677;29;20062;-78
2024/01/23 07:48:18;;;;;;;12.57;1.70;;;1.80;99.90;;;;;;4935571;29;20040;-78
2024/01/23 07:50:44;;;;;;;10.40;1.23;;;1.80;99.90;;;;;;4920478;29;20038;-80
2024/01/23 07:53:09;;;;;;;18.33;1.90;;;1.90;99.90;;;;;;4932224;29;20496;-79
2024/01/23 07:55:35;;;;;;;14.50;1.80;;;2.00;99.90;;;;;;4931081;29;20044;-79
2024/01/23 07:58:02;;;;;;;15.18;2.08;;;2.00;99.90;;;;;;4928293;29;20043;-79
2024/01/23 08:00:28;;;;;;;37.42;3.17;;;2.10;99.90;;;;;;4906669;29;20039;-79
2024/01/23 08:02:53;;;;;;;119.80;8.32;;;2.20;99.90;;;;;;4904575;29;20056;-79
2024/01/23 08:05:19;;;;;;;36.15;2.88;;;2.30;99.90;;;;;;4928912;29;20032;-79
2024/01/23 08:07:45;;;;;;;31.98;2.67;;;2.40;99.90;;;;;;4919480;29;20039;-79
2024/01/23 08:10:11;;;;;;;15.77;1.83;;;2.40;99.90;;;;;;4917183;29;20032;-79
2024/01/23 08:12:37;;;;;;;38.00;3.67;;;2.50;99.90;;;;;;4923203;29;20531;-79
2024/01/23 08:15:03;;;;;;;23.77;1.92;;;2.50;99.90;;;;;;4903775;29;20040;-79
2024/01/23 08:17:29;;;;;;;12.57;1.55;;;2.60;99.90;;;;;;4918184;29;20079;-80
2024/01/23 08:19:55;;;;;;;8.60;1.27;;;2.60;99.90;;;;;;4916577;29;20497;-79
2024/01/23 08:22:21;;;;;;;48.42;3.30;;;2.60;99.90;;;;;;4920772;29;20111;-79
2024/01/23 08:24:47;;;;;;;8.38;1.63;;;2.70;99.90;;;;;;4903192;29;20207;-79
2024/01/23 08:27:12;;;;;;;73.05;5.32;;;2.70;99.90;;;;;;4920583;29;20030;-79
2024/01/23 08:29:39;;;;;;;8.02;1.30;;;2.80;99.90;;;;;;4904167;29;20389;-80
2024/01/23 08:32:05;;;;;;;8.15;1.63;;;2.90;99.90;;;;;;4885099;29;20080;-79
2024/01/23 08:34:30;;;;;;;14.68;1.92;;;3.00;99.90;;;;;;4904039;29;20036;-79
2024/01/23 08:36:56;;;;;;;14.65;1.50;;;3.10;99.90;;;;;;4908506;29;20139;-79
2024/01/23 08:39:22;;;;;;;13.40;1.70;;;3.20;99.90;;;;;;4918531;29;20040;-80
2024/01/23 08:41:48;;;;;;;11.50;1.70;;;3.30;99.90;;;;;;4917837;29;20036;-78
2024/01/23 08:44:14;;;;;;;6.20;1.50;;;3.20;99.90;;;;;;4901972;29;20036;-79
2024/01/23 08:46:39;;;;;;;9.07;1.55;;;3.20;99.90;;;;;;4920205;29;20035;-79
2024/01/23 08:49:05;;;;;;;10.65;1.42;;;3.30;99.90;;;;;;4902560;29;20036;-79
2024/01/23 08:51:31;;;;;;;5.38;1.88;;;3.30;99.90;;;;;;4909521;29;20508;-78
2024/01/23 08:53:56;;;;;;;5.35;1.05;;;3.30;99.90;;;;;;4895939;29;21405;-79
2024/01/23 08:56:23;;;;;;;6.85;1.83;;;3.30;99.90;;;;;;4925472;29;20031;-79
2024/01/23 08:58:52;;;;;;;11.52;1.52;;;3.30;99.90;;;;;;4927908;29;20681;-78
2024/01/23 09:01:36;;;;;;;11.65;1.40;;;3.30;99.90;;;;;;4913313;29;20107;-79
2024/01/23 09:04:02;;;;;;;8.30;1.45;;;3.40;99.90;;;;;;4898485;29;20036;-78
2024/01/23 09:06:28;;;;;;;12.13;1.20;;;3.50;99.90;;;;;;4898637;29;20028;-79
2024/01/23 09:08:54;;;;;;;8.63;1.33;;;3.60;99.90;;;;;;4915074;29;20044;-78
2024/01/23 09:11:20;;;;;;;17.08;1.50;;;3.50;99.90;;;;;;4917034;29;20043;-79
2024/01/23 09:13:47;;;;;;;8.32;1.20;;;3.60;99.90;;;;;;4920146;29;20056;-79
2024/01/23 09:16:13;;;;;;;38.78;3.35;;;3.70;99.90;;;;;;4902571;29;20082;-79
2024/01/23 09:18:40;;;;;;;7.35;0.98;;;3.90;99.90;;;;;;4933040;29;20039;-81
2024/01/23 09:21:08;;;;;;;10.80;1.40;;;4.00;99.90;;;;;;4927031;29;20074;-79
2024/01/23 09:23:37;;;;;;;12.25;2.33;;;4.20;99.90;;;;;;4930772;29;20032;-80
2024/01/23 09:26:03;;;;;;;5.85;1.30;;;4.20;99.90;;;;;;4937109;29;20039;-80
2024/01/23 09:28:29;;;;;;;11.25;1.67;;;4.30;99.90;;;;;;4908641;29;20072;-79
2024/01/23 09:30:55;;;;;;;11.63;1.33;;;4.30;99.90;;;;;;4921331;29;20032;-80
2024/01/23 09:33:21;;;;;;;12.57;1.70;;;4.40;99.90;;;;;;4922442;29;20063;-80
2024/01/23 09:35:48;;;;;;;7.88;2.35;;;4.50;99.90;;;;;;4927101;29;20036;-80
2024/01/23 09:38:14;;;;;;;10.70;1.67;;;4.50;99.90;;;;;;4918684;29;20104;-80
2024/01/23 09:40:42;;;;;;;10.23;1.70;;;4.50;99.90;;;;;;4923923;29;20046;-80
2024/01/23 09:43:17;;;;;;;15.02;1.55;;;4.50;99.90;;;;;;4917161;29;20031;-80
2024/01/23 09:45:43;;;;;;;8.52;1.15;;;4.50;99.90;;;;;;4938267;29;20030;-80
2024/01/23 09:48:09;;;;;;;8.70;1.67;;;4.50;99.90;;;;;;4938129;29;20042;-80
2024/01/23 09:50:38;;;;;;;4.75;1.05;;;4.50;99.90;;;;;;4917733;29;20032;-80
2024/01/23 09:53:06;;;;;;;16.90;1.85;;;4.50;99.90;;;;;;4905741;29;20035;-80
2024/01/23 09:55:32;;;;;;;14.35;2.05;;;4.50;99.90;;;;;;4929927;29;20030;-80
2024/01/23 09:57:58;;;;;;;9.45;1.67;;;4.40;99.90;;;;;;4935978;29;20040;-79
2024/01/23 10:00:24;;;;;;;9.30;2.25;;;4.40;99.90;;;;;;4931757;29;20136;-79
2024/01/23 10:02:50;;;;;;;10.32;1.50;;;4.50;99.90;;;;;;4920260;29;20059;-79
2024/01/23 10:05:17;;;;;;;9.35;1.40;;;4.50;99.90;;;;;;4936493;29;20032;-79
2024/01/23 10:07:43;;;;;;;6.28;1.25;;;4.40;99.90;;;;;;4913776;29;20024;-80
2024/01/23 10:10:14;;;;;;;9.52;1.35;;;4.30;99.90;;;;;;4936500;29;20056;-79
2024/01/23 10:12:44;;;;;;;67.97;3.17;;;4.30;99.90;;;;;;4919460;29;20402;-78
2024/01/23 10:15:11;;;;;;;9.77;3.05;;;4.40;99.90;;;;;;4908313;29;20028;-80
2024/01/23 10:17:37;;;;;;;5.32;1.33;;;4.30;99.90;;;;;;4918775;29;20036;-78
2024/01/23 10:20:04;;;;;;;17.35;2.90;;;4.30;99.90;;;;;;4925027;29;20502;-78
2024/01/23 10:22:30;;;;;;;11.77;2.50;;;4.30;99.90;;;;;;4913766;29;20055;-78
2024/01/23 10:24:55;;;;;;;11.77;1.90;;;4.30;99.90;;;;;;4915186;29;20037;-79
2024/01/23 10:27:21;;;;;;;10.73;1.73;;;4.30;99.90;;;;;;4915872;29;20076;-79
2024/01/23 10:29:47;;;;;;;6.45;1.67;;;4.40;99.90;;;;;;4914597;29;20048;-79
2024/01/23 10:32:12;;;;;;;10.38;2.10;;;4.40;99.90;;;;;;4932174;29;20091;-78
2024/01/23 10:34:38;;;;;;;8.80;2.05;;;4.40;99.90;;;;;;4912606;29;20397;-79
2024/01/23 10:37:05;;;;;;;16.27;2.20;;;4.40;99.90;;;;;;4910204;29;20046;-79
2024/01/23 10:39:31;;;;;;;11.68;1.60;;;4.50;99.90;;;;;;4917792;29;20186;-78
2024/01/23 10:41:59;;;;;;;11.90;1.92;;;4.50;99.90;;;;;;4930589;29;20139;-80
2024/01/23 10:44:28;;;;;;;16.15;2.40;;;4.40;99.90;;;;;;4914682;29;20047;-80
2024/01/23 10:46:55;;;;;;;13.32;1.60;;;4.50;99.90;;;;;;4909881;29;20454;-80
2024/01/23 10:49:22;;;;;;;12.05;1.60;;;4.50;99.90;;;;;;4909109;29;20115;-80
2024/01/23 10:51:49;;;;;;;14.05;1.90;;;4.50;99.90;;;;;;4923689;29;20040;-79
2024/01/23 10:54:27;;;;;;;11.18;2.13;;;4.60;99.90;;;;;;4925261;29;20080;-78
2024/01/23 10:56:55;;;;;;;10.63;1.90;;;4.70;99.90;;;;;;4923889;29;20110;-79
2024/01/23 10:59:27;;;;;;;9.02;2.05;;;4.70;99.90;;;;;;4926166;29;20027;-79
2024/01/23 11:02:01;;;;;;;11.27;1.50;;;4.80;99.90;;;;;;4929814;29;20032;-79
2024/01/23 11:04:27;;;;;;;9.90;1.70;;;4.90;99.90;;;;;;4921612;29;20140;-80
2024/01/23 11:07:06;;;;;;;9.02;1.50;;;5.00;99.90;;;;;;4922177;29;20032;-79
2024/01/23 11:09:42;;;;;;;8.20;1.73;;;4.90;99.90;;;;;;4918410;29;20045;-79
2024/01/23 11:12:16;;;;;;;9.82;1.95;;;5.00;99.90;;;;;;4900870;29;20036;-80
2024/01/23 11:14:50;;;;;;;8.75;1.42;;;5.10;99.90;;;;;;4922935;29;20047;-80
2024/01/23 11:17:17;;;;;;;13.07;1.80;;;5.00;99.90;;;;;;4921131;29;20107;-79
2024/01/23 11:19:45;;;;;;;8.68;1.80;;;5.10;99.90;;;;;;4901277;29;20473;-80
2024/01/23 11:22:11;;;;;;;9.27;1.25;;;5.20;99.90;;;;;;4922693;29;20044;-80
2024/01/23 11:24:47;;;;;;;13.73;1.77;;;5.30;99.90;;;;;;4915887;29;20055;-79
2024/01/23 11:27:23;;;;;;;10.85;1.67;;;5.40;99.90;;;;;;4920261;29;20036;-80
2024/01/23 11:29:50;;;;;;;14.65;3.17;;;5.60;99.90;;;;;;4924020;29;20027;-80
2024/01/23 11:32:19;;;;;;;20.17;2.38;;;5.70;99.90;;;;;;4922129;29;20035;-79
2024/01/23 11:34:46;;;;;;;8.98;1.80;;;5.70;99.90;;;;;;4915979;29;20082;-79
2024/01/23 11:37:49;;;;;;;7.45;1.70;;;5.70;99.90;;;;;;4915947;29;20482;-79
2024/01/23 11:40:24;;;;;;;10.00;2.42;;;5.80;99.90;;;;;;4899416;29;20458;-80
2024/01/23 11:42:50;;;;;;;9.52;2.17;;;6.00;99.90;;;;;;4915458;29;20038;-79
2024/01/23 11:45:22;;;;;;;12.50;2.22;;;6.00;99.90;;;;;;4920541;29;20119;-79
2024/01/23 11:48:08;;;;;;;11.18;2.00;;;6.10;99.90;;;;;;4912132;29;20632;-79
2024/01/23 11:50:35;;;;;;;13.75;1.70;;;6.20;99.90;;;;;;4919190;29;20036;-79
2024/01/23 11:53:02;;;;;;;9.18;1.58;;;6.10;99.90;;;;;;4917964;29;20047;-79
2024/01/23 11:55:28;;;;;;;8.75;1.63;;;5.90;99.90;;;;;;4913972;29;20040;-80
2024/01/23 11:57:58;;;;;;;8.20;1.90;;;5.80;99.90;;;;;;4897270;29;20067;-79
2024/01/23 12:00:26;;;;;;;13.73;2.38;;;5.70;99.90;;;;;;4916480;29;20054;-80
2024/01/23 12:02:53;;;;;;;11.15;1.63;;;5.70;99.90;;;;;;4902495;29;20036;-80
2024/01/23 12:05:19;;;;;;;7.97;1.50;;;5.70;99.90;;;;;;4920976;29;20037;-79
2024/01/23 12:08:04;;;;;;;7.43;1.60;;;5.70;99.90;;;;;;4929949;29;20429;-80
2024/01/23 12:10:30;;;;;;;8.95;1.77;;;5.80;99.90;;;;;;4923396;29;20489;-79
2024/01/23 12:12:55;;;;;;;10.48;1.80;;;5.80;99.90;;;;;;4904437;29;20119;-79
2024/01/23 12:15:21;;;;;;;10.05;1.75;;;5.80;99.90;;;;;;4928466;29;20028;-79
2024/01/23 12:17:50;;;;;;;8.70;1.88;;;5.70;99.90;;;;;;4936678;29;20040;-79
2024/01/23 12:20:16;;;;;;;9.02;1.40;;;5.70;99.90;;;;;;4918594;29;20040;-78
2024/01/23 12:22:42;;;;;;;12.38;1.65;;;5.70;99.90;;;;;;4923102;29;20043;-79
2024/01/23 12:25:10;;;;;;;10.60;1.80;;;5.70;99.90;;;;;;4934741;29;20042;-79
2024/01/23 12:27:36;;;;;;;10.07;1.73;;;5.70;99.90;;;;;;4919603;29;20087;-78
2024/01/23 12:30:02;;;;;;;11.05;1.63;;;5.60;99.90;;;;;;4930320;29;20032;-79
2024/01/23 12:32:29;;;;;;;15.80;1.88;;;5.40;99.90;;;;;;4937276;29;20042;-79
2024/01/23 12:34:58;;;;;;;15.10;1.92;;;5.50;99.90;;;;;;4937261;29;20032;-78
2024/01/23 12:37:31;;;;;;;12.60;2.67;;;5.80;99.90;;;;;;4937399;29;20408;-79
2024/01/23 12:40:09;;;;;;;8.02;1.95;;;6.00;99.90;;;;;;4920558;29;20058;-79
2024/01/23 12:42:39;;;;;;;11.35;1.67;;;6.10;99.90;;;;;;4937670;29;20408;-79
2024/01/23 12:45:15;;;;;;;8.60;1.67;;;6.20;99.90;;;;;;4937285;29;20035;-78
2024/01/23 12:47:43;;;;;;;8.43;1.77;;;6.20;99.90;;;;;;4937494;29;20050;-80
2024/01/23 12:50:25;;;;;;;10.27;2.05;;;6.20;99.90;;;;;;4919943;29;20036;-80